Archival Weather

Chicago O'Hare International

Chicago, Illinois (KORD)

Report from: Saturday, March 5, 2022 11:51 AM CST
Current time: Saturday, February 4, 2023 12:27 AM CST

Current weather
Weather history
Weather forecast

Temperature17.8°C (64.0°F)
Dew point6.1°C (43.0°F)
Winds 14 kts (7.2 m/s, 16.1 mph) South-Southwest (200°)
Wind gusts 22 kts (11.3 m/s, 25.3 mph)
Visibility10 mi. (16.1 km)
Clouds Few clouds 5,500 ft. (1,676 m)
Ceiling: Broken clouds 8,500 ft. (2,591 m)
Broken clouds 25,000 ft. (7,620 m)
Altimeter29.84 in.Hg (1010 mB)
Relative humidity46 %
Density altitude560 ft. (171 m)
Sea-level pressure101.1 kPa (1011 mB, 29.84 in.Hg)
Max temp last 6 hours17.8°C (64.0°F)
Min temp last 6 hours3.9°C (39.0°F)
Remarks System requires maintenance
Automated weather observing station with precipitation discriminator
Pressure falling more slowly
Flight conditions Visual Meteorological Conditions
Raw dataKORD 051751Z 20014G22KT 10SM FEW055 BKN085 BKN250 18/06 A2984 RMK AO2 SLP106 T01780061 10178 20039 56028 $
An unhandled exception has occurred. See browser dev tools for details. Reload 🗙